createdAt,value
2023-01-17T00:00:30.259Z,30.88
2023-01-17T00:01:30.143Z,30.91
2023-01-17T00:02:30.181Z,30.90
2023-01-17T00:03:30.165Z,30.87
2023-01-17T00:04:30.112Z,30.87
2023-01-17T00:05:30.119Z,30.84
2023-01-17T00:54:43.161Z,30.64
2023-01-17T00:55:44.134Z,30.64
2023-01-17T00:56:44.115Z,30.64
2023-01-17T00:57:44.114Z,30.64
2023-01-17T00:58:44.095Z,30.57
2023-01-17T00:59:44.086Z,30.57
2023-01-17T01:00:44.117Z,30.57
2023-01-17T01:01:44.249Z,30.59
2023-01-17T01:02:44.145Z,30.63
2023-01-17T01:03:44.052Z,30.57
2023-01-17T01:04:44.040Z,30.60
2023-01-17T01:05:44.053Z,30.54
2023-01-17T01:06:44.020Z,30.58
2023-01-17T01:07:44.011Z,30.63
2023-01-17T01:08:44.009Z,30.57
2023-01-17T01:09:43.997Z,30.60
2023-01-17T01:10:44.040Z,30.60
2023-01-17T01:11:43.981Z,30.57
2023-01-17T01:12:43.977Z,30.54
2023-01-17T01:13:44.009Z,30.53
2023-01-17T01:14:43.952Z,30.57
2023-01-17T01:15:43.941Z,30.56
2023-01-17T01:16:43.929Z,30.56
2023-01-17T01:17:43.929Z,30.54
2023-01-17T01:18:43.909Z,30.58
2023-01-17T01:19:43.912Z,30.56
2023-01-17T01:20:43.890Z,30.57
2023-01-17T01:21:43.883Z,30.59
2023-01-17T01:22:43.877Z,30.58
2023-01-17T01:23:43.871Z,30.57
2023-01-17T01:24:43.852Z,30.57
2023-01-17T01:25:43.846Z,30.56
2023-01-17T01:26:43.871Z,30.54
2023-01-17T01:27:43.821Z,30.61
2023-01-17T01:28:43.823Z,30.54
2023-01-17T01:29:43.813Z,30.54
2023-01-17T01:30:43.806Z,30.53
2023-01-17T01:31:43.837Z,30.51
2023-01-17T01:32:43.782Z,30.57
2023-01-17T01:33:43.793Z,30.56
2023-01-17T01:34:43.770Z,30.60
2023-01-17T01:35:43.760Z,30.49
2023-01-17T01:36:43.755Z,30.51
2023-01-17T01:37:43.737Z,30.53
2023-01-17T01:38:43.731Z,30.56
2023-01-17T01:39:43.729Z,30.53
2023-01-17T01:40:43.710Z,30.50
2023-01-17T01:41:43.703Z,30.52
2023-01-17T01:42:43.717Z,30.50
2023-01-17T01:43:43.682Z,30.50
2023-01-17T01:44:43.674Z,30.54
2023-01-17T01:45:43.779Z,30.53
2023-01-17T01:46:43.653Z,30.60
2023-01-17T01:47:43.645Z,30.53
2023-01-17T01:48:43.640Z,30.47
2023-01-17T01:49:43.632Z,30.53
2023-01-17T01:50:43.617Z,30.53
2023-01-17T01:51:43.668Z,30.53
2023-01-17T01:52:43.603Z,30.50
2023-01-17T01:53:43.590Z,30.51
2023-01-17T01:54:43.607Z,30.51
2023-01-17T01:55:43.571Z,30.53
2023-01-17T01:56:43.559Z,30.54
2023-01-17T01:57:43.548Z,30.53
2023-01-17T01:58:43.583Z,30.51
2023-01-17T01:59:43.539Z,30.46
2023-01-17T02:00:43.555Z,30.47
2023-01-17T02:01:43.667Z,30.54
2023-01-17T02:02:43.508Z,30.53
2023-01-17T02:03:43.536Z,30.48
2023-01-17T02:04:43.490Z,30.48
2023-01-17T02:05:43.480Z,30.49
2023-01-17T02:06:43.467Z,30.47
2023-01-17T02:07:43.464Z,30.48
2023-01-17T02:08:43.453Z,30.44
2023-01-17T02:09:43.446Z,30.47
2023-01-17T02:10:43.440Z,30.50
2023-01-17T02:11:43.449Z,30.46
2023-01-17T02:12:43.416Z,30.48
2023-01-17T02:13:43.435Z,30.46
2023-01-17T02:14:43.422Z,30.48
2023-01-17T02:15:43.386Z,30.41
2023-01-17T02:16:43.451Z,30.43
2023-01-17T02:17:43.367Z,30.42
2023-01-17T02:18:43.362Z,30.44
2023-01-17T02:19:43.350Z,30.42
2023-01-17T02:20:43.338Z,30.38
2023-01-17T02:21:43.337Z,30.37
2023-01-17T02:22:43.332Z,30.33
2023-01-17T02:23:43.315Z,30.35
2023-01-17T02:24:43.316Z,30.29
2023-01-17T02:25:43.643Z,30.31
2023-01-17T02:26:43.287Z,30.36
2023-01-17T02:27:43.274Z,30.37
2023-01-17T02:28:43.278Z,30.36
2023-01-17T02:29:43.256Z,30.34
2023-01-17T02:30:43.274Z,30.40
2023-01-17T02:31:43.257Z,30.40
2023-01-17T02:32:43.238Z,30.35
2023-01-17T02:33:43.221Z,30.42
2023-01-17T02:34:43.210Z,30.41
2023-01-17T02:35:43.206Z,30.44
2023-01-17T02:36:43.197Z,30.42
2023-01-17T02:37:43.186Z,30.42
2023-01-17T02:38:43.177Z,30.42
2023-01-17T02:39:43.170Z,30.41
2023-01-17T02:40:43.180Z,30.40
2023-01-17T02:41:43.148Z,30.42
2023-01-17T02:42:43.137Z,30.37
2023-01-17T02:43:43.129Z,30.42
2023-01-17T02:44:43.122Z,30.44
2023-01-17T02:45:43.156Z,30.37
2023-01-17T02:46:43.130Z,30.44
2023-01-17T02:47:43.092Z,30.34
2023-01-17T02:48:43.095Z,30.43
2023-01-17T02:49:43.074Z,30.43
2023-01-17T02:50:43.069Z,30.37
2023-01-17T02:51:43.059Z,30.40
2023-01-17T02:52:43.052Z,30.41
2023-01-17T02:53:43.107Z,30.43
2023-01-17T02:54:43.026Z,30.40
2023-01-17T02:55:43.027Z,30.37
2023-01-17T02:56:43.009Z,30.33
2023-01-17T02:57:43.002Z,30.38
2023-01-17T02:58:42.992Z,30.41
2023-01-17T02:59:42.981Z,30.38
2023-01-17T03:00:42.982Z,30.37
2023-01-17T03:01:43.034Z,30.37
2023-01-17T03:02:43.023Z,30.35
2023-01-17T03:03:42.955Z,30.40
2023-01-17T03:04:42.951Z,30.41
2023-01-17T03:05:42.931Z,30.41
2023-01-17T03:06:42.916Z,30.40
2023-01-17T03:07:42.929Z,30.37
2023-01-17T03:08:42.903Z,30.42
2023-01-17T03:09:42.893Z,30.45
2023-01-17T03:10:42.912Z,30.43
2023-01-17T03:11:42.869Z,30.45
2023-01-17T03:12:42.862Z,30.38
2023-01-17T03:13:42.856Z,30.44
2023-01-17T03:14:42.844Z,30.44
2023-01-17T03:15:42.871Z,30.44
2023-01-17T03:16:42.893Z,30.45
2023-01-17T03:17:42.824Z,30.41
2023-01-17T03:18:42.841Z,30.42
2023-01-17T03:19:42.799Z,30.44
2023-01-17T03:20:42.831Z,30.37
2023-01-17T03:21:42.784Z,30.37
2023-01-17T03:22:42.774Z,30.35
2023-01-17T03:23:42.771Z,30.37
2023-01-17T03:24:42.752Z,30.36
2023-01-17T03:25:42.743Z,30.34
2023-01-17T03:26:42.735Z,30.41
2023-01-17T03:27:42.736Z,30.34
2023-01-17T03:28:42.718Z,30.31
2023-01-17T03:29:42.734Z,30.37
2023-01-17T03:30:42.758Z,30.34
2023-01-17T03:31:42.696Z,30.36
2023-01-17T03:32:42.685Z,30.37
2023-01-17T03:33:42.668Z,30.33
2023-01-17T03:34:42.689Z,30.30
2023-01-17T03:35:42.651Z,30.35
2023-01-17T03:36:42.652Z,30.30
2023-01-17T03:37:42.633Z,30.34
2023-01-17T03:38:42.623Z,30.33
2023-01-17T03:39:42.614Z,30.31
2023-01-17T03:40:42.619Z,30.40
2023-01-17T03:41:42.599Z,30.29
2023-01-17T03:42:42.586Z,30.32
2023-01-17T03:43:42.576Z,30.33
2023-01-17T03:44:42.569Z,30.31
2023-01-17T03:45:42.633Z,30.30
2023-01-17T03:46:42.551Z,30.34
2023-01-17T03:47:42.541Z,30.31
2023-01-17T03:48:42.533Z,30.33
2023-01-17T03:49:42.528Z,30.31
2023-01-17T03:50:42.536Z,30.34
2023-01-17T03:51:42.515Z,30.34
2023-01-17T03:52:42.499Z,30.32
2023-01-17T03:53:42.485Z,30.34
2023-01-17T03:54:42.478Z,30.32
2023-01-17T03:55:42.464Z,30.32
2023-01-17T03:56:42.460Z,30.31
2023-01-17T03:57:42.446Z,30.31
2023-01-17T03:58:42.458Z,30.29
2023-01-17T03:59:42.442Z,30.34
2023-01-17T04:00:42.419Z,30.25
2023-01-17T04:01:42.497Z,30.31
2023-01-17T04:02:42.469Z,30.32
2023-01-17T04:03:42.395Z,30.30
2023-01-17T04:04:42.381Z,30.32
2023-01-17T04:05:42.372Z,30.30
2023-01-17T04:06:42.397Z,30.30
2023-01-17T04:07:42.361Z,30.27
2023-01-17T04:08:42.346Z,30.28
2023-01-17T04:09:42.339Z,30.28
2023-01-17T04:10:42.327Z,30.34
2023-01-17T04:11:42.361Z,30.27
2023-01-17T04:12:42.310Z,30.31
2023-01-17T04:13:42.318Z,30.31
2023-01-17T04:14:42.293Z,30.31
2023-01-17T04:15:42.281Z,30.32
2023-01-17T04:16:42.301Z,30.30
2023-01-17T04:17:42.263Z,30.28
2023-01-17T04:18:42.273Z,30.28
2023-01-17T04:19:42.251Z,30.32
2023-01-17T04:20:42.235Z,30.36
2023-01-17T04:21:42.226Z,30.43
2023-01-17T04:22:42.256Z,30.44
2023-01-17T04:23:42.222Z,30.51
2023-01-17T04:24:42.199Z,30.56
2023-01-17T04:25:42.210Z,30.65
2023-01-17T04:26:42.186Z,30.67
2023-01-17T04:27:42.171Z,30.70
2023-01-17T04:28:42.196Z,30.71
2023-01-17T04:29:42.155Z,30.74
2023-01-17T04:30:42.208Z,30.81
2023-01-17T04:31:42.255Z,30.81
2023-01-17T04:32:42.132Z,30.81
2023-01-17T04:33:42.124Z,30.88
2023-01-17T04:34:42.109Z,30.86
2023-01-17T04:35:42.099Z,30.90
2023-01-17T04:36:42.089Z,30.88
2023-01-17T04:37:42.081Z,30.86
2023-01-17T04:38:42.251Z,30.91
2023-01-17T04:39:42.064Z,30.96
2023-01-17T04:40:42.057Z,30.91
2023-01-17T04:41:42.047Z,30.93
2023-01-17T04:42:42.036Z,30.94
2023-01-17T04:43:42.028Z,30.94
2023-01-17T04:44:42.021Z,30.97
2023-01-17T04:45:42.011Z,30.97
2023-01-17T04:46:42.003Z,30.96
2023-01-17T04:47:42.000Z,30.97
2023-01-17T04:48:41.982Z,30.94
2023-01-17T04:49:44.071Z,30.98
2023-01-17T04:50:41.965Z,30.93
2023-01-17T04:51:41.958Z,31.01
2023-01-17T04:52:41.946Z,30.98
2023-01-17T04:53:41.952Z,31.02
2023-01-17T04:55:41.917Z,31.01
2023-01-17T04:56:41.913Z,31.03
2023-01-17T04:57:41.907Z,31.04
2023-01-17T04:58:41.890Z,31.00
2023-01-17T04:59:41.895Z,31.02
2023-01-17T05:00:41.875Z,31.04
2023-01-17T05:01:42.017Z,31.00
2023-01-17T05:02:41.871Z,31.03
2023-01-17T05:03:41.849Z,31.03
2023-01-17T05:04:41.844Z,31.00
2023-01-17T05:05:41.835Z,31.01
2023-01-17T05:06:41.822Z,31.00
2023-01-17T05:07:41.816Z,31.04
2023-01-17T05:08:41.804Z,31.04
2023-01-17T05:09:41.793Z,31.04
2023-01-17T05:10:41.820Z,31.01
2023-01-17T05:11:41.777Z,31.07
2023-01-17T05:12:41.769Z,31.01
2023-01-17T05:13:41.769Z,31.04
2023-01-17T05:14:41.750Z,31.01
2023-01-17T05:15:41.815Z,31.01
2023-01-17T05:16:41.787Z,31.01
2023-01-17T05:17:41.742Z,31.00
2023-01-17T05:18:41.717Z,30.99
2023-01-17T05:19:41.708Z,30.99
2023-01-17T05:20:41.703Z,31.00
2023-01-17T05:21:41.687Z,30.99
2023-01-17T05:22:41.676Z,31.04
2023-01-17T05:23:41.672Z,31.00
2023-01-17T05:24:41.665Z,30.99
2023-01-17T05:25:41.668Z,30.99
2023-01-17T05:26:41.674Z,30.96
2023-01-17T05:27:41.638Z,30.98
2023-01-17T05:28:41.629Z,30.99
2023-01-17T05:29:41.620Z,30.99
2023-01-17T05:30:41.670Z,30.94
2023-01-17T05:31:41.596Z,30.97
2023-01-17T05:32:41.590Z,30.96
2023-01-17T05:33:41.604Z,30.93
2023-01-17T05:34:41.571Z,31.02
2023-01-17T05:35:41.570Z,30.99
2023-01-17T05:36:41.551Z,30.96
2023-01-17T05:37:41.543Z,30.95
2023-01-17T05:38:41.540Z,30.95
2023-01-17T05:39:41.525Z,30.97
2023-01-17T05:40:41.518Z,30.99
2023-01-17T05:41:41.510Z,30.92
2023-01-17T05:42:41.635Z,30.93
2023-01-17T05:43:41.496Z,30.96
2023-01-17T05:44:41.480Z,30.98
2023-01-17T05:45:41.476Z,30.96
2023-01-17T05:46:41.494Z,30.93
2023-01-17T05:47:41.463Z,30.94
2023-01-17T05:48:41.456Z,30.95
2023-01-17T05:49:41.442Z,30.96
2023-01-17T05:50:41.427Z,30.99
2023-01-17T05:51:41.417Z,30.98
2023-01-17T05:52:41.427Z,30.99
2023-01-17T05:53:41.402Z,30.99
2023-01-17T05:54:41.392Z,31.02
2023-01-17T05:55:41.383Z,30.98
2023-01-17T05:56:41.376Z,31.00
2023-01-17T05:57:41.372Z,31.03
2023-01-17T05:58:41.383Z,31.03
2023-01-17T05:59:41.345Z,30.96
2023-01-17T06:00:41.342Z,31.02
2023-01-17T06:01:41.358Z,31.00
2023-01-17T06:02:41.404Z,31.05
2023-01-17T06:03:41.308Z,30.99
2023-01-17T06:04:41.316Z,30.98
2023-01-17T06:05:41.303Z,30.99
2023-01-17T06:06:41.289Z,30.96
2023-01-17T06:07:41.275Z,30.91
2023-01-17T06:08:41.281Z,30.72
2023-01-17T06:09:41.268Z,30.50
2023-01-17T06:10:41.247Z,30.27
2023-01-17T06:11:41.242Z,30.00
2023-01-17T06:12:41.227Z,29.86
2023-01-17T06:13:41.220Z,29.73
2023-01-17T06:14:41.333Z,29.64
2023-01-17T06:15:41.271Z,29.54
2023-01-17T06:16:41.198Z,29.57
2023-01-17T06:17:41.197Z,29.66
2023-01-17T06:18:41.190Z,29.99
2023-01-17T06:19:41.287Z,30.09
2023-01-17T06:20:41.171Z,30.14
2023-01-17T06:21:41.164Z,30.20
2023-01-17T06:22:41.143Z,30.17
2023-01-17T06:23:41.149Z,30.26
2023-01-17T06:24:41.283Z,30.31
2023-01-17T06:25:41.117Z,30.31
2023-01-17T06:26:41.108Z,30.37
2023-01-17T06:27:41.095Z,30.37
2023-01-17T06:28:41.102Z,30.43
2023-01-17T06:29:41.289Z,30.39
2023-01-17T06:30:41.098Z,30.48
2023-01-17T06:31:41.163Z,30.48
2023-01-17T06:32:41.059Z,30.50
2023-01-17T06:33:41.040Z,30.48
2023-01-17T06:34:41.308Z,30.53
2023-01-17T06:35:41.023Z,30.57
2023-01-17T06:36:41.011Z,30.57
2023-01-17T06:37:41.004Z,30.64
2023-01-17T06:38:41.285Z,30.64
2023-01-17T06:39:40.995Z,30.67
2023-01-17T06:40:40.991Z,30.68
2023-01-17T06:42:41.194Z,30.65
2023-01-17T06:43:41.287Z,30.62
2023-01-17T06:44:40.966Z,30.69
2023-01-17T06:45:40.933Z,30.48
2023-01-17T06:46:41.000Z,30.42
2023-01-17T06:47:40.938Z,30.40
2023-01-17T06:48:41.686Z,30.42
2023-01-17T06:49:41.997Z,30.60
2023-01-17T06:50:41.302Z,30.72
2023-01-17T06:51:43.527Z,30.81
2023-01-17T06:52:40.873Z,30.94
2023-01-17T06:53:41.192Z,31.01
2023-01-17T06:55:41.321Z,31.20
2023-01-17T06:57:41.335Z,31.54
2023-01-17T06:58:41.021Z,31.52
2023-01-17T07:00:41.237Z,31.93
2023-01-17T07:02:40.803Z,31.84
2023-01-17T07:03:41.063Z,31.82
2023-01-17T07:04:40.796Z,31.68
2023-01-17T07:05:40.759Z,31.50
2023-01-17T07:06:40.767Z,31.44
2023-01-17T07:07:56.331Z,31.22
2023-01-17T07:09:40.798Z,30.39
2023-01-17T07:10:40.929Z,30.43
2023-01-17T07:11:40.704Z,30.32
2023-01-17T07:12:40.699Z,30.47
2023-01-17T07:13:40.685Z,30.63
2023-01-17T07:14:40.676Z,30.67
2023-01-17T07:15:40.676Z,30.87
2023-01-17T07:16:40.676Z,31.01
2023-01-17T07:17:40.657Z,31.18
2023-01-17T07:18:40.664Z,31.27
2023-01-17T07:19:40.634Z,31.34
2023-01-17T07:20:40.626Z,31.52
2023-01-17T07:21:40.649Z,31.61
2023-01-17T07:22:40.606Z,31.84
2023-01-17T07:23:40.605Z,31.78
2023-01-17T07:24:40.601Z,31.87
2023-01-17T07:25:40.584Z,31.85
2023-01-17T07:26:40.567Z,31.78
2023-01-17T07:27:40.570Z,31.79
2023-01-17T07:28:40.807Z,31.87
2023-01-17T07:29:40.540Z,31.90
2023-01-17T07:30:40.528Z,31.89
2023-01-17T07:31:40.595Z,31.95
2023-01-17T07:32:40.518Z,31.94
2023-01-17T07:33:40.815Z,31.90
2023-01-17T07:34:40.522Z,31.93
2023-01-17T07:35:40.490Z,32.03
2023-01-17T07:36:40.476Z,31.87
2023-01-17T07:37:40.467Z,31.90
2023-01-17T07:38:40.473Z,32.23
2023-01-17T07:39:40.462Z,32.14
2023-01-17T07:40:42.416Z,32.12
2023-01-17T07:41:40.431Z,32.20
2023-01-17T07:42:40.429Z,32.24
2023-01-17T07:43:40.413Z,32.39
2023-01-17T07:44:41.407Z,32.32
2023-01-17T07:46:40.480Z,32.31
2023-01-17T07:47:40.385Z,32.31
2023-01-17T07:49:40.361Z,32.43
2023-01-17T07:50:40.379Z,32.47
2023-01-17T07:51:40.348Z,32.29
2023-01-17T07:52:40.335Z,32.35
2023-01-17T07:54:40.315Z,32.43
2023-01-17T07:55:40.313Z,32.56
2023-01-17T07:56:40.311Z,32.48
2023-01-17T07:57:40.295Z,32.42
2023-01-17T07:58:40.315Z,32.59
2023-01-17T07:59:40.294Z,32.54
2023-01-17T08:00:40.321Z,32.40
2023-01-17T08:01:40.488Z,32.41
2023-01-17T08:02:40.258Z,32.37
2023-01-17T08:03:40.438Z,32.27
2023-01-17T08:04:40.300Z,32.44
2023-01-17T08:05:40.319Z,32.43
2023-01-17T08:06:40.237Z,32.48
2023-01-17T08:10:40.315Z,32.42
2023-01-17T08:15:40.334Z,32.48
2023-01-17T08:20:40.322Z,32.43
2023-01-17T08:25:40.325Z,32.64
2023-01-17T08:30:40.326Z,32.50
2023-01-17T08:33:55.591Z,31.83
2023-01-17T08:35:40.331Z,31.57
2023-01-17T08:38:40.416Z,31.79
2023-01-17T08:42:40.465Z,31.95
2023-01-17T08:43:40.938Z,31.89
2023-01-17T09:02:40.242Z,32.04
2023-01-17T09:04:39.838Z,32.13
2023-01-17T09:05:40.103Z,32.30
2023-01-17T09:07:39.814Z,32.17
2023-01-17T09:08:39.709Z,32.27
2023-01-17T09:10:39.897Z,32.24
2023-01-17T09:12:39.848Z,32.37
2023-01-17T09:13:39.688Z,32.31
2023-01-17T09:14:39.664Z,32.36
2023-01-17T09:15:39.847Z,32.36
2023-01-17T09:17:40.650Z,32.45
2023-01-17T09:19:40.623Z,32.40
2023-01-17T09:21:43.919Z,32.53
2023-01-17T09:22:40.598Z,32.52
2023-01-17T09:24:39.701Z,32.62
2023-01-17T09:25:39.545Z,32.68
2023-01-17T09:26:39.912Z,32.53
2023-01-17T09:28:39.576Z,32.48
2023-01-17T09:33:39.517Z,32.71
2023-01-17T09:34:40.494Z,32.88
2023-01-17T09:36:39.908Z,32.60
2023-01-17T09:37:39.476Z,32.53
2023-01-17T09:38:39.459Z,32.73
2023-01-17T09:39:39.552Z,32.70
2023-01-17T09:40:39.447Z,32.83
2023-01-17T09:42:40.454Z,32.66
2023-01-17T09:44:39.399Z,28.66
2023-01-17T09:45:39.519Z,28.90
2023-01-17T09:46:40.136Z,29.80
2023-01-17T09:48:39.345Z,30.12
2023-01-17T09:49:39.376Z,30.41
2023-01-17T09:50:39.387Z,30.62
2023-01-17T09:51:42.522Z,30.82
2023-01-17T09:53:39.307Z,31.17
2023-01-17T09:54:39.302Z,31.37
2023-01-17T09:55:39.355Z,31.54
2023-01-17T09:56:39.528Z,31.54
2023-01-17T09:57:39.365Z,31.50
2023-01-17T09:58:39.288Z,31.59
2023-01-17T09:59:39.285Z,31.67
2023-01-17T10:00:39.242Z,31.67
2023-01-17T10:01:39.437Z,31.81
2023-01-17T10:02:39.537Z,31.95
2023-01-17T10:03:39.335Z,31.99
2023-01-17T10:04:39.194Z,32.09
2023-01-17T10:05:39.360Z,32.01
2023-01-17T10:06:39.188Z,32.01
2023-01-17T10:07:39.179Z,31.92
2023-01-17T10:08:39.169Z,31.79
2023-01-17T10:09:39.366Z,31.81
2023-01-17T10:10:39.146Z,31.82
2023-01-17T10:11:39.166Z,31.75
2023-01-17T10:12:39.130Z,31.73
2023-01-17T10:13:39.365Z,31.76
2023-01-17T10:14:39.132Z,31.66
2023-01-17T10:15:39.108Z,30.99
2023-01-17T10:16:39.124Z,30.65
2023-01-17T10:17:39.084Z,30.23
2023-01-17T10:18:39.398Z,29.86
2023-01-17T10:19:39.077Z,29.63
2023-01-17T10:20:39.067Z,29.88
2023-01-17T10:21:39.054Z,30.02
2023-01-17T10:22:39.067Z,29.94
2023-01-17T10:23:39.370Z,29.39
2023-01-17T10:24:39.023Z,28.45
2023-01-17T10:25:39.383Z,28.83
2023-01-17T10:26:39.009Z,28.93
2023-01-17T10:27:38.994Z,29.29
2023-01-17T10:28:38.988Z,29.57
2023-01-17T10:29:38.987Z,29.84
2023-01-17T10:31:39.138Z,29.99
2023-01-17T10:32:39.060Z,30.07
2023-01-17T10:33:38.954Z,30.20
2023-01-17T10:34:38.942Z,30.28
2023-01-17T10:36:38.931Z,30.39
2023-01-17T10:37:40.606Z,30.39
2023-01-17T10:40:39.057Z,30.68
2023-01-17T10:42:39.058Z,30.78
2023-01-17T10:44:39.018Z,30.94
2023-01-17T10:45:39.009Z,30.97
2023-01-17T10:46:39.049Z,30.97
2023-01-17T10:47:38.987Z,31.06
2023-01-17T10:49:38.973Z,31.23
2023-01-17T10:50:38.960Z,31.15
2023-01-17T10:51:38.955Z,31.18
2023-01-17T10:52:38.942Z,31.21
2023-01-17T10:55:38.919Z,31.19
2023-01-17T10:56:38.911Z,31.26
2023-01-17T10:58:38.888Z,31.29
2023-01-17T10:59:38.883Z,31.31
2023-01-17T11:00:38.884Z,31.32
2023-01-17T11:01:38.945Z,31.32
2023-01-17T11:02:38.922Z,31.39
2023-01-17T11:03:39.864Z,31.44
2023-01-17T11:04:38.844Z,31.46
2023-01-17T11:05:38.830Z,31.49
2023-01-17T11:06:53.185Z,31.44
2023-01-17T11:07:40.091Z,31.44
2023-01-17T11:08:38.801Z,31.55
2023-01-17T11:09:38.911Z,31.56
2023-01-17T11:10:39.043Z,31.55
2023-01-17T11:11:38.775Z,31.52
2023-01-17T11:12:38.762Z,31.56
2023-01-17T11:13:38.764Z,31.60
2023-01-17T11:15:38.744Z,31.61
2023-01-17T11:16:38.731Z,31.63
2023-01-17T11:17:38.720Z,31.63
2023-01-17T11:18:38.845Z,31.69
2023-01-17T11:19:38.891Z,31.73
2023-01-17T11:20:38.723Z,31.73
2023-01-17T11:21:38.723Z,31.70
2023-01-17T11:22:38.674Z,31.76
2023-01-17T11:23:38.666Z,31.77
2023-01-17T11:25:38.645Z,31.80
2023-01-17T11:26:38.710Z,31.83
2023-01-17T11:27:38.644Z,31.69
2023-01-17T11:28:38.653Z,31.65
2023-01-17T11:29:38.911Z,31.60
2023-01-17T11:31:38.631Z,31.52
2023-01-17T11:32:38.589Z,31.49
2023-01-17T11:33:38.578Z,31.54
2023-01-17T11:35:38.560Z,31.51
2023-01-17T11:36:38.547Z,31.50
2023-01-17T11:37:38.544Z,31.47
2023-01-17T11:38:38.538Z,31.48
2023-01-17T11:40:38.537Z,31.41
2023-01-17T11:41:38.504Z,31.38
2023-01-17T11:42:39.013Z,31.37
2023-01-17T11:43:38.483Z,31.37
2023-01-17T11:45:38.464Z,31.38
2023-01-17T11:47:38.462Z,31.46
2023-01-17T11:48:38.444Z,31.46
2023-01-17T11:49:38.435Z,31.45
2023-01-17T11:50:38.455Z,31.43
2023-01-17T11:52:38.404Z,31.52
2023-01-17T11:53:38.424Z,31.51
2023-01-17T11:54:38.390Z,31.53
2023-01-17T11:55:38.385Z,31.44
2023-01-17T11:56:38.395Z,31.50
2023-01-17T11:57:38.363Z,31.45
2023-01-17T11:58:38.363Z,31.47
2023-01-17T11:59:38.358Z,31.42
2023-01-17T12:00:38.391Z,31.39
2023-01-17T12:01:38.400Z,31.28
2023-01-17T12:02:38.320Z,31.31
2023-01-17T12:03:38.350Z,31.38
2023-01-17T12:04:38.363Z,31.35
2023-01-17T12:05:38.288Z,31.28
2023-01-17T12:06:56.145Z,31.25
2023-01-17T12:07:38.284Z,31.21
2023-01-17T12:09:38.487Z,31.16
2023-01-17T12:10:38.245Z,31.19
2023-01-17T12:11:38.437Z,30.38
2023-01-17T12:12:38.237Z,26.27
2023-01-17T12:13:38.219Z,26.31
2023-01-17T12:14:38.211Z,24.49
2023-01-17T12:15:38.235Z,23.34
2023-01-17T12:16:38.192Z,22.14
2023-01-17T12:18:38.175Z,21.32
2023-01-17T12:19:38.174Z,20.83
2023-01-17T12:20:38.156Z,20.77
2023-01-17T12:21:38.145Z,20.62
2023-01-17T12:23:38.127Z,21.19
2023-01-17T12:24:38.121Z,21.98
2023-01-17T12:25:38.113Z,22.75
2023-01-17T12:26:38.107Z,22.97
2023-01-17T12:28:38.085Z,23.71
2023-01-17T12:29:38.073Z,24.61
2023-01-17T12:30:38.068Z,25.14
2023-01-17T12:31:38.196Z,25.63
2023-01-17T12:33:38.040Z,27.75
2023-01-17T12:34:38.033Z,28.20
2023-01-17T12:36:38.025Z,28.96
2023-01-17T12:37:38.017Z,29.75
2023-01-17T12:40:37.998Z,30.97
2023-01-17T12:41:37.967Z,30.38
2023-01-17T12:42:37.966Z,30.82
2023-01-17T12:43:37.963Z,30.46
2023-01-17T12:46:38.012Z,30.28
2023-01-17T12:47:37.917Z,30.40
2023-01-17T12:48:37.909Z,30.40
2023-01-17T12:49:37.891Z,30.33
2023-01-17T12:50:37.915Z,30.37
2023-01-17T12:51:37.886Z,30.47
2023-01-17T12:52:37.870Z,30.43
2023-01-17T12:53:37.860Z,30.27
2023-01-17T12:54:37.874Z,30.39
2023-01-17T12:55:37.847Z,30.45
2023-01-17T12:56:37.843Z,30.56
2023-01-17T12:57:37.822Z,30.63
2023-01-17T12:58:37.916Z,30.60
2023-01-17T12:59:37.825Z,30.61
2023-01-17T13:00:37.834Z,30.56
2023-01-17T13:01:37.879Z,30.67
2023-01-17T13:02:37.777Z,30.78
2023-01-17T13:03:37.770Z,30.73
2023-01-17T13:04:46.903Z,30.79
2023-01-17T13:05:37.931Z,30.73
2023-01-17T13:06:37.740Z,30.83
2023-01-17T13:08:37.986Z,31.08
2023-01-17T13:09:37.719Z,31.09
2023-01-17T13:11:37.701Z,30.96
2023-01-17T13:12:37.699Z,30.91
2023-01-17T13:13:37.679Z,30.71
2023-01-17T13:14:37.668Z,30.64
2023-01-17T13:16:37.666Z,30.22
2023-01-17T13:17:37.652Z,30.02
2023-01-17T13:19:37.624Z,29.73
2023-01-17T13:20:38.020Z,29.68
2023-01-17T13:21:37.694Z,30.06
2023-01-17T13:22:37.609Z,29.75
2023-01-17T13:23:37.589Z,29.72
2023-01-17T13:25:37.572Z,29.88
2023-01-17T13:27:37.552Z,33.37
2023-01-17T13:28:37.546Z,34.09
2023-01-17T13:29:37.536Z,33.05
2023-01-17T13:30:37.539Z,32.09
2023-01-17T13:32:37.507Z,32.22
2023-01-17T13:33:37.505Z,32.50
2023-01-17T13:34:37.490Z,32.51
2023-01-17T13:35:37.481Z,32.57
2023-01-17T13:37:37.471Z,32.58
2023-01-17T13:38:37.456Z,32.59
2023-01-17T13:39:37.444Z,32.55
2023-01-17T13:40:37.471Z,32.39
2023-01-17T13:41:37.429Z,32.29
2023-01-17T13:42:37.452Z,32.26
2023-01-17T13:43:37.417Z,32.22
2023-01-17T13:44:37.447Z,32.25
2023-01-17T13:45:37.431Z,32.24
2023-01-17T13:46:37.436Z,32.19
2023-01-17T13:47:37.388Z,32.14
2023-01-17T13:48:37.367Z,32.03
2023-01-17T13:49:37.434Z,31.96
2023-01-17T13:50:37.357Z,31.90
2023-01-17T13:51:37.442Z,31.97
2023-01-17T13:52:37.332Z,31.96
2023-01-17T13:53:37.326Z,32.01
2023-01-17T13:54:37.437Z,32.03
2023-01-17T13:55:37.302Z,32.07
2023-01-17T13:56:37.309Z,32.05
2023-01-17T13:57:37.288Z,31.96
2023-01-17T13:58:37.313Z,31.90
2023-01-17T13:59:37.440Z,31.80
2023-01-17T14:00:37.310Z,31.83
2023-01-17T14:01:37.649Z,31.89
2023-01-17T14:02:37.328Z,31.90
2023-01-17T14:03:37.241Z,31.86
2023-01-17T14:04:37.219Z,31.89
2023-01-17T14:05:37.212Z,31.83
2023-01-17T14:06:37.441Z,31.75
2023-01-17T14:07:37.200Z,31.68
2023-01-17T14:08:37.184Z,31.75
2023-01-17T14:09:37.174Z,31.82
2023-01-17T14:10:37.167Z,31.87
2023-01-17T14:12:37.148Z,31.85
2023-01-17T14:13:37.144Z,31.86
2023-01-17T14:15:37.137Z,31.72
2023-01-17T14:16:37.160Z,31.60
2023-01-17T14:18:37.126Z,31.73
2023-01-17T14:19:37.121Z,31.80
2023-01-17T14:20:37.078Z,31.76
2023-01-17T14:21:37.069Z,31.77
2023-01-17T14:23:37.055Z,31.84
2023-01-17T14:24:37.039Z,31.82
2023-01-17T14:25:37.044Z,31.66
2023-01-17T14:26:37.033Z,31.48
2023-01-17T14:28:37.024Z,31.61
2023-01-17T14:29:36.994Z,31.66
2023-01-17T14:30:37.011Z,31.67
2023-01-17T14:32:36.968Z,31.66
2023-01-17T14:33:37.018Z,31.59
2023-01-17T14:34:36.980Z,31.50
2023-01-17T14:35:36.952Z,31.53
2023-01-17T14:36:36.964Z,31.45
2023-01-17T14:37:36.926Z,31.32
2023-01-17T14:38:36.924Z,31.26
2023-01-17T14:39:36.906Z,31.32
2023-01-17T14:40:36.896Z,31.40
2023-01-17T14:41:36.951Z,31.43
2023-01-17T14:42:36.889Z,31.36
2023-01-17T14:43:36.870Z,31.32
2023-01-17T14:44:36.863Z,31.28
2023-01-17T14:45:36.962Z,31.16
2023-01-17T14:46:36.982Z,31.18
2023-01-17T14:47:36.843Z,31.33
2023-01-17T14:48:36.826Z,31.42
2023-01-17T14:49:36.829Z,31.52
2023-01-17T14:50:36.808Z,31.54
2023-01-17T14:51:36.987Z,31.53
2023-01-17T14:52:36.789Z,31.56
2023-01-17T14:53:36.783Z,31.56
2023-01-17T14:54:36.771Z,31.46
2023-01-17T14:55:36.763Z,31.48
2023-01-17T14:56:36.773Z,31.46
2023-01-17T14:57:36.743Z,31.51
2023-01-17T14:58:36.739Z,31.59
2023-01-17T14:59:36.728Z,31.56
2023-01-17T15:00:36.722Z,31.57
2023-01-17T15:01:36.825Z,31.49
2023-01-17T15:02:36.875Z,31.47
2023-01-17T15:03:36.690Z,31.33
2023-01-17T15:04:36.691Z,31.43
2023-01-17T15:05:36.673Z,31.60
2023-01-17T15:06:36.670Z,31.73
2023-01-17T15:07:36.665Z,31.78
2023-01-17T15:08:36.645Z,31.88
2023-01-17T15:09:36.642Z,31.92
2023-01-17T15:11:36.622Z,31.89
2023-01-17T15:12:36.972Z,31.89
2023-01-17T15:13:44.166Z,31.88
2023-01-17T15:14:36.592Z,31.86
2023-01-17T15:15:36.582Z,31.85
2023-01-17T15:17:36.569Z,31.75
2023-01-17T15:18:36.583Z,31.68
2023-01-17T15:19:36.549Z,31.53
2023-01-17T15:20:36.544Z,31.43
2023-01-17T15:21:36.532Z,31.36
2023-01-17T15:24:36.501Z,31.49
2023-01-17T15:25:36.494Z,31.52
2023-01-17T15:26:36.487Z,31.49
2023-01-17T15:27:36.479Z,31.49
2023-01-17T15:29:36.460Z,31.40
2023-01-17T15:30:36.476Z,31.38
2023-01-17T15:31:36.439Z,31.19
2023-01-17T15:32:36.434Z,31.20
2023-01-17T15:33:36.426Z,31.17
2023-01-17T15:34:36.440Z,31.26
2023-01-17T15:35:36.409Z,31.27
2023-01-17T15:36:36.392Z,31.33
2023-01-17T15:37:36.413Z,31.25
2023-01-17T15:38:39.189Z,31.29
2023-01-17T15:39:36.381Z,31.25
2023-01-17T15:40:36.361Z,31.16